createdAt,value
2022-09-30T00:01:35.170Z,6.90
2022-09-30T00:04:03.624Z,5.97
2022-09-30T00:06:32.750Z,7.07
2022-09-30T00:09:01.727Z,5.40
2022-09-30T00:11:35.811Z,5.22
2022-09-30T00:14:03.996Z,5.78
2022-09-30T00:16:34.053Z,6.28
2022-09-30T00:19:03.024Z,5.38
2022-09-30T00:21:31.050Z,5.38
2022-09-30T00:23:58.984Z,7.28
2022-09-30T00:26:28.290Z,4.70
2022-09-30T00:28:59.799Z,9.73
2022-09-30T00:31:30.573Z,7.28
2022-09-30T00:34:11.508Z,7.03
2022-09-30T00:36:43.939Z,7.05
2022-09-30T00:39:14.729Z,7.32
2022-09-30T00:41:43.129Z,8.00
2022-09-30T00:44:52.176Z,6.10
2022-09-30T00:47:39.223Z,7.25
2022-09-30T00:50:17.126Z,7.82
2022-09-30T00:52:48.367Z,10.07
2022-09-30T00:55:27.681Z,8.00
2022-09-30T00:57:56.904Z,7.60
2022-09-30T01:00:26.347Z,10.65
2022-09-30T01:02:55.367Z,7.85
2022-09-30T01:05:26.312Z,7.32
2022-09-30T01:07:57.489Z,5.72
2022-09-30T01:10:25.466Z,7.68
2022-09-30T01:12:53.820Z,5.60
2022-09-30T01:15:33.227Z,5.38
2022-09-30T01:18:08.330Z,6.25
2022-09-30T01:21:05.958Z,7.45
2022-09-30T01:23:50.537Z,4.13
2022-09-30T01:26:42.059Z,4.53
2022-09-30T01:29:44.844Z,4.55
2022-09-30T01:32:27.606Z,3.53
2022-09-30T01:37:42.945Z,5.30
2022-09-30T01:40:22.685Z,8.43
2022-09-30T01:42:57.893Z,5.50
2022-09-30T01:45:34.271Z,4.93
2022-09-30T01:48:08.887Z,6.20
2022-09-30T01:50:45.360Z,4.90
2022-09-30T01:53:20.235Z,6.07
2022-09-30T01:55:51.673Z,5.63
2022-09-30T01:58:30.271Z,6.35
2022-09-30T02:01:02.889Z,6.47
2022-09-30T02:03:36.006Z,6.18
2022-09-30T02:06:07.697Z,5.22
2022-09-30T02:08:42.489Z,6.03
2022-09-30T02:11:20.191Z,6.18
2022-09-30T02:13:55.087Z,5.03
2022-09-30T02:16:27.199Z,7.57
2022-09-30T02:19:00.992Z,5.88
2022-09-30T02:21:34.069Z,5.07
2022-09-30T02:24:06.456Z,7.13
2022-09-30T02:26:38.606Z,6.20
2022-09-30T02:29:12.059Z,3.67
2022-09-30T02:31:44.345Z,4.78
2022-09-30T02:34:17.672Z,4.32
2022-09-30T02:36:51.512Z,5.72
2022-09-30T02:39:27.012Z,3.95
2022-09-30T02:42:03.408Z,5.03
2022-09-30T02:44:31.790Z,4.68
2022-09-30T02:47:12.573Z,3.97
2022-09-30T02:49:47.937Z,3.55
2022-09-30T02:52:25.933Z,4.25
2022-09-30T02:55:07.307Z,3.88
2022-09-30T02:57:43.188Z,5.13
2022-09-30T03:00:13.439Z,3.42
2022-09-30T03:02:42.774Z,5.70
2022-09-30T03:05:13.222Z,6.20
2022-09-30T03:07:43.845Z,3.58
2022-09-30T03:10:16.388Z,4.70
2022-09-30T03:15:32.004Z,4.78
2022-09-30T03:18:13.633Z,8.48
2022-09-30T03:20:53.005Z,4.40
2022-09-30T03:24:02.128Z,5.72
2022-09-30T03:26:41.748Z,4.68
2022-09-30T03:29:17.724Z,5.75
2022-09-30T03:32:02.306Z,3.92
2022-09-30T03:34:37.771Z,8.07
2022-09-30T03:37:18.326Z,6.30
2022-09-30T03:40:00.548Z,7.10
2022-09-30T03:42:34.167Z,6.65
2022-09-30T03:45:06.163Z,6.22
2022-09-30T03:47:39.078Z,4.13
2022-09-30T03:50:10.805Z,7.00
2022-09-30T03:52:40.286Z,9.53
2022-09-30T03:55:11.667Z,6.20
2022-09-30T03:57:44.337Z,6.22
2022-09-30T04:02:40.683Z,7.97
2022-09-30T04:05:09.629Z,4.43
2022-09-30T04:07:38.978Z,6.07
2022-09-30T04:10:07.479Z,4.35
2022-09-30T04:12:35.456Z,5.30
2022-09-30T04:15:03.413Z,5.82
2022-09-30T04:17:32.121Z,5.55
2022-09-30T04:20:00.021Z,5.63
2022-09-30T04:22:27.932Z,5.90
2022-09-30T04:24:57.156Z,5.40
2022-09-30T04:27:25.116Z,7.72
2022-09-30T04:29:53.026Z,5.53
2022-09-30T04:32:23.008Z,7.63
2022-09-30T04:34:50.929Z,7.25
2022-09-30T04:37:18.915Z,3.70
2022-09-30T04:39:46.745Z,4.68
2022-09-30T04:42:16.562Z,8.27
2022-09-30T04:44:48.081Z,5.78
2022-09-30T04:47:16.198Z,6.00
2022-09-30T04:49:44.124Z,5.63
2022-09-30T04:52:12.039Z,5.20
2022-09-30T04:54:39.988Z,5.85
2022-09-30T04:57:07.968Z,7.18
2022-09-30T04:59:37.366Z,4.68
2022-09-30T05:02:05.465Z,5.72
2022-09-30T05:04:33.908Z,8.80
2022-09-30T05:07:01.927Z,4.18
2022-09-30T05:09:29.902Z,4.63
2022-09-30T05:11:57.879Z,4.63
2022-09-30T05:14:25.821Z,6.43
2022-09-30T05:16:55.109Z,7.10
2022-09-30T05:19:23.306Z,4.32
2022-09-30T05:21:52.033Z,5.07
2022-09-30T05:24:20.122Z,6.38
2022-09-30T05:26:48.114Z,5.88
2022-09-30T05:29:15.988Z,5.70
2022-09-30T05:31:44.046Z,8.32
2022-09-30T05:34:16.608Z,4.88
2022-09-30T05:36:44.869Z,4.80
2022-09-30T05:39:13.478Z,5.50
2022-09-30T05:41:41.486Z,6.00
2022-09-30T05:44:10.129Z,7.85
2022-09-30T05:46:38.034Z,6.38
2022-09-30T05:49:06.004Z,5.28
2022-09-30T05:51:36.351Z,8.80
2022-09-30T05:54:04.471Z,7.78
2022-09-30T05:56:34.747Z,6.85
2022-09-30T05:59:02.853Z,6.28
2022-09-30T06:01:30.778Z,8.50
2022-09-30T06:03:58.792Z,7.22
2022-09-30T06:06:27.711Z,9.93
2022-09-30T06:08:57.409Z,8.20
2022-09-30T06:11:25.349Z,6.95
2022-09-30T06:13:53.520Z,6.82
2022-09-30T06:16:21.855Z,6.68
2022-09-30T06:18:49.779Z,11.80
2022-09-30T06:21:19.354Z,8.63
2022-09-30T06:23:47.630Z,5.85
2022-09-30T06:26:17.070Z,7.68
2022-09-30T06:28:46.677Z,7.05
2022-09-30T06:31:14.749Z,7.30
2022-09-30T06:33:43.349Z,9.13
2022-09-30T06:36:11.944Z,9.10
2022-09-30T06:38:40.452Z,9.68
2022-09-30T06:41:08.974Z,14.93
2022-09-30T06:43:45.246Z,12.82
2022-09-30T06:46:25.319Z,12.60
2022-09-30T06:49:09.709Z,10.88
2022-09-30T06:54:11.270Z,8.27
2022-09-30T06:56:39.269Z,11.70
2022-09-30T06:59:08.664Z,11.50
2022-09-30T07:01:36.614Z,8.50
2022-09-30T07:04:09.569Z,11.00
2022-09-30T07:06:38.835Z,11.00
2022-09-30T07:09:07.488Z,13.23
2022-09-30T07:11:36.602Z,15.05
2022-09-30T07:14:05.359Z,11.10
2022-09-30T07:16:35.247Z,10.43
2022-09-30T07:19:03.706Z,10.57
2022-09-30T07:21:34.729Z,9.68
2022-09-30T07:24:03.042Z,10.80
2022-09-30T07:26:31.137Z,12.73
2022-09-30T07:29:00.067Z,13.10
2022-09-30T07:31:33.049Z,9.25
2022-09-30T07:34:07.000Z,10.02
2022-09-30T07:36:37.029Z,10.02
2022-09-30T07:39:07.467Z,12.90
2022-09-30T07:41:38.942Z,17.35
2022-09-30T07:44:09.951Z,10.55
2022-09-30T07:46:39.088Z,9.55
2022-09-30T07:49:13.451Z,13.35
2022-09-30T07:51:44.164Z,11.02
2022-09-30T07:54:15.192Z,14.63
2022-09-30T07:57:09.884Z,12.52
2022-09-30T07:59:33.493Z,9.35
2022-09-30T08:02:01.846Z,10.52
2022-09-30T08:04:31.373Z,11.40
2022-09-30T08:07:03.292Z,9.35
2022-09-30T08:09:32.190Z,10.35
2022-09-30T08:12:00.390Z,11.75
2022-09-30T08:14:28.978Z,10.63
2022-09-30T08:16:58.449Z,11.88
2022-09-30T08:19:27.714Z,15.35
2022-09-30T08:21:57.604Z,13.27
2022-09-30T08:24:27.055Z,8.45
2022-09-30T08:26:56.041Z,14.27
2022-09-30T08:29:50.019Z,11.32
2022-09-30T08:32:12.165Z,13.73
2022-09-30T08:34:40.125Z,14.20
2022-09-30T08:37:10.299Z,12.65
2022-09-30T08:39:38.465Z,10.85
2022-09-30T08:42:42.603Z,11.82
2022-09-30T08:45:22.740Z,9.60
2022-09-30T08:47:58.537Z,11.23
2022-09-30T08:50:35.800Z,11.48
2022-09-30T08:53:10.333Z,12.38
2022-09-30T08:55:42.479Z,12.40
2022-09-30T08:58:22.862Z,12.20
2022-09-30T09:00:53.785Z,12.18
2022-09-30T09:03:27.379Z,11.40
2022-09-30T09:06:02.473Z,11.35
2022-09-30T09:08:49.049Z,11.52
2022-09-30T09:11:30.361Z,13.18
2022-09-30T09:14:03.682Z,10.70
2022-09-30T09:16:36.880Z,11.52
2022-09-30T09:19:11.212Z,10.98
2022-09-30T09:21:53.457Z,10.57
2022-09-30T09:24:25.826Z,10.45
2022-09-30T09:26:55.176Z,11.30
2022-09-30T09:29:37.968Z,16.50
2022-09-30T09:32:17.477Z,11.20
2022-09-30T09:34:46.262Z,10.00
2022-09-30T09:37:20.025Z,11.20
2022-09-30T09:40:04.514Z,11.52
2022-09-30T09:42:59.378Z,9.10
2022-09-30T09:45:31.569Z,12.98
2022-09-30T09:48:01.513Z,9.65
2022-09-30T09:50:39.196Z,12.10
2022-09-30T09:53:41.235Z,10.75
2022-09-30T09:56:18.721Z,9.65
2022-09-30T09:59:09.416Z,11.52
2022-09-30T10:01:39.697Z,10.77
2022-09-30T10:04:17.792Z,9.85
2022-09-30T10:06:51.527Z,8.20
2022-09-30T10:09:31.547Z,9.07
2022-09-30T10:12:28.803Z,9.75
2022-09-30T10:15:04.480Z,10.00
2022-09-30T10:17:34.636Z,10.10
2022-09-30T10:20:07.796Z,9.75
2022-09-30T10:22:37.425Z,6.88
2022-09-30T10:25:22.151Z,8.23
2022-09-30T10:28:17.426Z,8.75
2022-09-30T10:30:47.681Z,7.85
2022-09-30T10:33:37.988Z,8.18
2022-09-30T10:36:13.571Z,10.80
2022-09-30T10:38:53.407Z,10.27
2022-09-30T10:41:27.480Z,10.45
2022-09-30T10:43:59.301Z,9.98
2022-09-30T10:46:31.491Z,12.33
2022-09-30T10:49:00.397Z,10.68
2022-09-30T10:51:36.130Z,10.85
2022-09-30T10:54:05.299Z,10.07
2022-09-30T10:56:39.439Z,10.77
2022-09-30T10:59:19.822Z,9.88
2022-09-30T11:01:53.732Z,10.68
2022-09-30T11:04:30.035Z,11.52
2022-09-30T11:07:09.738Z,9.30
2022-09-30T11:09:41.542Z,8.30
2022-09-30T11:12:22.909Z,8.05
2022-09-30T11:14:58.809Z,7.27
2022-09-30T11:17:34.805Z,8.85
2022-09-30T11:20:13.576Z,9.20
2022-09-30T11:22:47.822Z,6.75
2022-09-30T11:25:20.208Z,7.30
2022-09-30T11:28:03.838Z,6.20
2022-09-30T11:30:41.015Z,6.75
2022-09-30T11:33:29.763Z,6.40
2022-09-30T11:36:06.724Z,7.80
2022-09-30T11:38:56.359Z,5.68
2022-09-30T11:41:29.750Z,7.68
2022-09-30T11:44:07.335Z,4.88
2022-09-30T11:47:15.722Z,6.40
2022-09-30T11:50:18.477Z,6.78
2022-09-30T11:52:56.561Z,6.72
2022-09-30T11:55:38.365Z,7.30
2022-09-30T11:58:36.185Z,4.40
2022-09-30T12:01:01.830Z,5.20
2022-09-30T12:03:36.551Z,9.25
2022-09-30T12:06:15.472Z,5.82
2022-09-30T12:08:50.198Z,5.82
2022-09-30T12:11:20.887Z,5.43
2022-09-30T12:13:53.223Z,4.80
2022-09-30T12:16:25.264Z,7.25
2022-09-30T12:18:58.453Z,6.93
2022-09-30T12:21:32.918Z,6.63
2022-09-30T12:24:06.063Z,7.40
2022-09-30T12:26:34.623Z,5.95
2022-09-30T12:29:27.239Z,5.70
2022-09-30T12:32:29.583Z,5.72
2022-09-30T12:35:15.750Z,6.15
2022-09-30T12:37:57.123Z,2.72
2022-09-30T12:40:54.811Z,6.82
2022-09-30T12:43:49.664Z,5.18
2022-09-30T12:46:25.214Z,4.07
2022-09-30T12:48:56.804Z,4.55
2022-09-30T12:51:32.573Z,6.50
2022-09-30T12:54:04.746Z,4.90
2022-09-30T12:56:34.627Z,5.18
2022-09-30T12:59:03.826Z,4.70
2022-09-30T13:01:33.521Z,6.68
2022-09-30T13:04:33.294Z,3.75
2022-09-30T13:07:19.822Z,6.38
2022-09-30T13:10:00.081Z,5.00
2022-09-30T13:12:41.603Z,4.75
2022-09-30T13:15:40.751Z,3.63
2022-09-30T13:18:46.485Z,4.72
2022-09-30T13:21:21.406Z,5.15
2022-09-30T13:23:53.186Z,4.18
2022-09-30T13:26:41.269Z,3.30
2022-09-30T13:29:48.341Z,6.82
2022-09-30T13:32:33.902Z,5.65
2022-09-30T13:35:02.050Z,4.97
2022-09-30T13:37:38.884Z,5.22
2022-09-30T13:40:37.601Z,5.43
2022-09-30T13:43:16.155Z,4.30
2022-09-30T13:45:45.873Z,5.15
2022-09-30T13:48:19.392Z,6.38
2022-09-30T13:50:50.088Z,4.75
2022-09-30T13:53:33.351Z,5.05
2022-09-30T13:56:08.327Z,4.00
2022-09-30T13:59:00.720Z,3.10
2022-09-30T14:02:09.976Z,4.53
2022-09-30T14:05:07.021Z,4.85
2022-09-30T14:07:49.710Z,5.30
2022-09-30T14:10:34.929Z,3.85
2022-09-30T14:13:28.274Z,5.00
2022-09-30T14:16:25.693Z,4.70
2022-09-30T14:19:22.299Z,4.95
2022-09-30T14:21:54.738Z,4.93
2022-09-30T14:27:17.547Z,3.72
2022-09-30T14:29:57.091Z,5.65
2022-09-30T14:32:29.882Z,3.65
2022-09-30T14:34:59.859Z,4.07
2022-09-30T14:37:31.022Z,3.42
2022-09-30T14:39:59.599Z,2.88
2022-09-30T14:42:32.641Z,5.07
2022-09-30T14:45:05.323Z,5.32
2022-09-30T14:47:37.511Z,5.07
2022-09-30T14:50:11.746Z,3.33
2022-09-30T14:52:44.054Z,5.15
2022-09-30T14:55:25.503Z,4.80
2022-09-30T14:57:54.769Z,2.67
2022-09-30T15:00:31.508Z,2.42
2022-09-30T15:03:02.788Z,2.53
2022-09-30T15:05:30.801Z,7.10
2022-09-30T15:07:58.770Z,3.33
2022-09-30T15:10:28.010Z,4.80
2022-09-30T15:12:56.272Z,2.83
2022-09-30T15:15:33.204Z,2.75
2022-09-30T15:18:03.084Z,3.08
2022-09-30T15:20:33.739Z,3.58
2022-09-30T15:23:04.650Z,7.00
2022-09-30T15:25:32.758Z,3.70
2022-09-30T15:28:00.811Z,2.78
2022-09-30T15:30:30.409Z,6.03
2022-09-30T15:33:00.956Z,2.80
2022-09-30T15:35:33.216Z,2.78
2022-09-30T15:38:09.832Z,3.13
2022-09-30T15:40:50.593Z,2.80
2022-09-30T15:43:33.721Z,3.15
2022-09-30T15:46:23.232Z,4.55
2022-09-30T15:48:51.162Z,2.03
2022-09-30T15:51:34.728Z,3.17
2022-09-30T15:54:17.444Z,2.72
2022-09-30T15:59:15.433Z,2.58
2022-09-30T16:01:46.572Z,2.58
2022-09-30T16:04:24.906Z,3.03
2022-09-30T16:06:55.318Z,3.22
2022-09-30T16:09:29.027Z,2.17
2022-09-30T16:12:05.577Z,2.13
2022-09-30T16:14:37.288Z,3.20
2022-09-30T16:17:07.513Z,3.15
2022-09-30T16:19:35.838Z,2.38
2022-09-30T16:22:07.868Z,5.95
2022-09-30T16:24:47.305Z,3.78
2022-09-30T16:27:29.189Z,3.25
2022-09-30T16:29:57.857Z,3.77
2022-09-30T16:32:29.035Z,2.42
2022-09-30T16:34:57.903Z,4.10
2022-09-30T16:37:25.994Z,4.18
2022-09-30T16:39:53.976Z,4.13
2022-09-30T16:42:21.879Z,3.20
2022-09-30T16:44:49.771Z,2.72
2022-09-30T16:47:20.979Z,5.15
2022-09-30T16:49:51.081Z,3.35
2022-09-30T16:52:19.048Z,4.05
2022-09-30T16:54:46.975Z,5.90
2022-09-30T16:57:16.553Z,4.28
2022-09-30T16:59:45.168Z,3.85
2022-09-30T17:02:18.718Z,4.47
2022-09-30T17:04:47.256Z,3.53
2022-09-30T17:07:16.599Z,4.50
2022-09-30T17:09:45.058Z,6.38
2022-09-30T17:12:13.396Z,2.85
2022-09-30T17:14:43.378Z,4.05
2022-09-30T17:17:13.698Z,4.03
2022-09-30T17:19:42.182Z,3.70
2022-09-30T17:22:10.131Z,5.95
2022-09-30T17:24:42.325Z,2.63
2022-09-30T17:27:10.223Z,4.15
2022-09-30T17:29:42.244Z,3.97
2022-09-30T17:32:10.537Z,4.57
2022-09-30T17:34:38.552Z,4.78
2022-09-30T17:39:36.365Z,5.72
2022-09-30T17:42:23.472Z,3.40
2022-09-30T17:44:52.268Z,7.78
2022-09-30T17:47:21.313Z,8.90
2022-09-30T17:49:49.212Z,7.40
2022-09-30T17:52:18.071Z,6.07
2022-09-30T17:54:51.188Z,8.10
2022-09-30T17:57:22.076Z,6.78
2022-09-30T17:59:50.008Z,5.85
2022-09-30T18:02:18.475Z,7.85
2022-09-30T18:04:46.511Z,7.18
2022-09-30T18:07:16.198Z,6.43
2022-09-30T18:09:44.122Z,7.88
2022-09-30T18:12:12.188Z,5.47
2022-09-30T18:14:43.741Z,6.28
2022-09-30T18:17:14.428Z,5.65
2022-09-30T18:19:42.543Z,5.85
2022-09-30T18:22:12.122Z,6.20
2022-09-30T18:24:57.340Z,6.80
2022-09-30T18:27:25.909Z,6.57
2022-09-30T18:29:55.321Z,6.40
2022-09-30T18:32:23.285Z,7.22
2022-09-30T18:34:54.239Z,7.13
2022-09-30T18:37:22.195Z,8.18
2022-09-30T18:39:50.237Z,5.60
2022-09-30T18:42:18.777Z,6.70
2022-09-30T18:44:46.782Z,6.07
2022-09-30T18:47:19.236Z,9.73
2022-09-30T18:49:47.225Z,7.32
2022-09-30T18:52:16.442Z,9.77
2022-09-30T18:54:44.295Z,8.15
2022-09-30T18:57:12.209Z,5.88
2022-09-30T18:59:40.090Z,7.40
2022-09-30T19:02:09.046Z,9.52
2022-09-30T19:04:38.402Z,7.35
2022-09-30T19:07:06.319Z,8.30
2022-09-30T19:09:35.892Z,5.55
2022-09-30T19:12:04.345Z,8.50
2022-09-30T19:14:36.004Z,10.88
2022-09-30T19:17:03.957Z,6.97
2022-09-30T19:19:32.356Z,6.43
2022-09-30T19:22:02.948Z,7.88
2022-09-30T19:24:30.919Z,7.40
2022-09-30T19:26:58.811Z,8.70
2022-09-30T19:29:26.804Z,7.18
2022-09-30T19:31:57.311Z,7.40
2022-09-30T19:34:32.189Z,5.72
2022-09-30T19:37:02.027Z,7.30
2022-09-30T19:39:39.815Z,6.72
2022-09-30T19:42:12.737Z,9.98
2022-09-30T19:44:41.844Z,9.90
2022-09-30T19:47:09.726Z,7.75
2022-09-30T19:49:39.582Z,7.57
2022-09-30T19:52:17.362Z,7.35
2022-09-30T19:54:48.362Z,8.02
2022-09-30T19:57:16.374Z,7.78
2022-09-30T19:59:45.070Z,6.82
2022-09-30T20:02:13.107Z,6.45
2022-09-30T20:04:44.205Z,7.65
2022-09-30T20:07:16.139Z,6.88
2022-09-30T20:09:44.310Z,6.05
2022-09-30T20:12:12.217Z,7.82
2022-09-30T20:14:57.894Z,9.60
2022-09-30T20:17:25.890Z,8.38
2022-09-30T20:20:07.718Z,10.05
2022-09-30T20:22:38.650Z,9.63
2022-09-30T20:25:07.248Z,7.78
2022-09-30T20:27:35.150Z,5.95
2022-09-30T20:30:03.116Z,10.90
2022-09-30T20:32:31.181Z,5.85
2022-09-30T20:35:01.027Z,7.20
2022-09-30T20:37:29.981Z,6.47
2022-09-30T20:40:00.323Z,7.72
2022-09-30T20:42:29.504Z,7.05
2022-09-30T20:45:03.001Z,7.95
2022-09-30T20:47:31.512Z,10.25
2022-09-30T20:49:59.478Z,7.63
2022-09-30T20:52:28.715Z,7.15
2022-09-30T20:55:00.320Z,9.35
2022-09-30T20:57:31.387Z,6.22
2022-09-30T21:00:00.254Z,10.98
2022-09-30T21:02:29.259Z,7.28
2022-09-30T21:04:58.320Z,6.88
2022-09-30T21:07:26.683Z,7.20
2022-09-30T21:09:54.791Z,9.80
2022-09-30T21:12:24.420Z,7.30
2022-09-30T21:14:53.720Z,9.45
2022-09-30T21:17:21.655Z,8.90
2022-09-30T21:19:49.522Z,11.38
2022-09-30T21:22:17.730Z,7.93
2022-09-30T21:24:47.688Z,9.00
2022-09-30T21:27:15.531Z,10.45
2022-09-30T21:29:43.849Z,8.50
2022-09-30T21:32:13.170Z,8.27
2022-09-30T21:34:41.562Z,7.47
2022-09-30T21:37:09.508Z,10.93
2022-09-30T21:39:37.425Z,6.25
2022-09-30T21:42:05.546Z,9.90
2022-09-30T21:44:35.957Z,12.07
2022-09-30T21:47:04.278Z,9.00
2022-09-30T21:49:33.749Z,8.60
2022-09-30T21:52:07.573Z,8.35
2022-09-30T21:54:35.702Z,8.45
2022-09-30T21:57:03.609Z,9.77
2022-09-30T21:59:35.851Z,14.30
2022-09-30T22:02:03.881Z,9.43
2022-09-30T22:04:33.294Z,9.38
2022-09-30T22:07:01.193Z,10.45
2022-09-30T22:09:29.169Z,9.73
2022-09-30T22:11:57.133Z,14.25
2022-09-30T22:14:25.373Z,10.82
2022-09-30T22:16:55.813Z,11.73
2022-09-30T22:19:23.804Z,10.52
2022-09-30T22:21:53.121Z,9.77
2022-09-30T22:24:25.196Z,10.52
2022-09-30T22:26:53.282Z,10.52
2022-09-30T22:29:22.385Z,14.52
2022-09-30T22:31:50.366Z,11.50
2022-09-30T22:34:36.100Z,9.60
2022-09-30T22:37:22.605Z,9.18
2022-09-30T22:39:50.543Z,12.25
2022-09-30T22:42:18.560Z,11.20
2022-09-30T22:44:47.450Z,8.65
2022-09-30T22:47:15.540Z,10.10
2022-09-30T22:49:44.079Z,14.98
2022-09-30T22:52:14.929Z,11.57
2022-09-30T22:54:42.823Z,10.95
2022-09-30T22:57:12.858Z,11.38
2022-09-30T22:59:41.751Z,8.88
2022-09-30T23:02:09.653Z,12.23
2022-09-30T23:04:37.615Z,12.45
2022-09-30T23:07:08.200Z,11.75
2022-09-30T23:09:37.497Z,12.60
2022-09-30T23:12:05.552Z,9.38
2022-09-30T23:14:33.442Z,10.82
2022-09-30T23:17:01.415Z,11.10
2022-09-30T23:19:29.450Z,11.85
2022-09-30T23:21:57.331Z,11.10
2022-09-30T23:24:26.456Z,12.38
2022-09-30T23:26:55.713Z,10.10
2022-09-30T23:29:24.777Z,8.48
2022-09-30T23:31:52.719Z,9.18
2022-09-30T23:34:20.722Z,10.60
2022-09-30T23:36:48.593Z,11.18
2022-09-30T23:39:19.481Z,10.07
2022-09-30T23:41:48.282Z,10.90
2022-09-30T23:44:18.901Z,13.90
2022-09-30T23:47:01.488Z,12.18
2022-09-30T23:49:35.681Z,15.88
2022-09-30T23:52:09.241Z,12.00
2022-09-30T23:54:40.598Z,10.07
2022-09-30T23:57:09.558Z,13.00
2022-09-30T23:59:38.927Z,13.02
